createdAt,value
2023-05-15T00:01:19.660Z,8.97
2023-05-15T00:03:48.273Z,8.97
2023-05-15T00:06:16.732Z,9.20
2023-05-15T00:08:46.792Z,9.60
2023-05-15T00:11:16.638Z,9.13
2023-05-15T00:13:44.973Z,10.00
2023-05-15T00:16:13.533Z,9.20
2023-05-15T00:18:41.994Z,11.30
2023-05-15T00:21:10.500Z,8.27
2023-05-15T00:23:38.958Z,9.37
2023-05-15T00:26:07.314Z,9.50
2023-05-15T00:28:37.032Z,9.57
2023-05-15T00:31:05.528Z,9.07
2023-05-15T00:33:33.981Z,7.90
2023-05-15T00:36:02.381Z,9.00
2023-05-15T00:38:30.747Z,7.97
2023-05-15T00:40:59.181Z,8.67
2023-05-15T00:43:28.012Z,9.23
2023-05-15T00:45:59.317Z,8.60
2023-05-15T00:48:28.184Z,8.53
2023-05-15T00:50:57.366Z,7.80
2023-05-15T00:53:25.922Z,7.90
2023-05-15T00:55:56.403Z,7.97
2023-05-15T00:58:25.436Z,7.80
2023-05-15T01:00:54.981Z,8.73
2023-05-15T01:03:25.496Z,8.20
2023-05-15T01:05:53.975Z,7.83
2023-05-15T01:08:25.376Z,8.40
2023-05-15T01:10:54.160Z,7.00
2023-05-15T01:13:23.719Z,7.77
2023-05-15T01:15:52.202Z,7.67
2023-05-15T01:18:20.678Z,7.50
2023-05-15T01:20:55.982Z,7.50
2023-05-15T01:23:30.235Z,8.30
2023-05-15T01:26:26.269Z,6.90
2023-05-15T01:28:59.814Z,7.20
2023-05-15T01:31:29.093Z,8.03
2023-05-15T01:33:59.698Z,7.10
2023-05-15T01:36:32.172Z,6.30
2023-05-15T01:39:03.261Z,7.07
2023-05-15T01:41:33.726Z,7.10
2023-05-15T01:44:06.716Z,7.80
2023-05-15T01:46:36.617Z,6.83
2023-05-15T01:49:05.231Z,7.50
2023-05-15T01:51:34.158Z,6.50
2023-05-15T01:54:02.596Z,7.63
2023-05-15T01:56:31.560Z,7.60
2023-05-15T01:59:00.935Z,7.77
2023-05-15T02:01:31.805Z,8.03
2023-05-15T02:04:01.843Z,7.10
2023-05-15T02:06:30.472Z,7.70
2023-05-15T02:08:59.677Z,7.90
2023-05-15T02:11:28.132Z,6.83
2023-05-15T02:13:58.688Z,7.80
2023-05-15T02:16:27.304Z,8.60
2023-05-15T02:18:57.153Z,8.00
2023-05-15T02:21:25.668Z,7.70
2023-05-15T02:23:54.096Z,7.13
2023-05-15T02:26:27.650Z,7.37
2023-05-15T02:29:00.785Z,7.47
2023-05-15T02:31:32.841Z,8.20
2023-05-15T02:34:11.244Z,7.83
2023-05-15T02:36:42.362Z,7.30
2023-05-15T02:39:12.168Z,8.00
2023-05-15T02:41:41.068Z,7.63
2023-05-15T02:44:09.820Z,7.60
2023-05-15T02:46:39.098Z,7.57
2023-05-15T02:49:09.134Z,7.70
2023-05-15T02:51:37.544Z,6.87
2023-05-15T02:54:06.588Z,6.20
2023-05-15T02:56:34.966Z,6.37
2023-05-15T02:59:03.382Z,6.20
2023-05-15T03:01:31.896Z,6.00
2023-05-15T03:04:00.252Z,6.03
2023-05-15T03:06:31.691Z,5.77
2023-05-15T03:09:00.113Z,6.77
2023-05-15T03:11:28.616Z,6.30
2023-05-15T03:13:56.950Z,5.70
2023-05-15T03:16:25.420Z,5.10
2023-05-15T03:18:53.856Z,6.63
2023-05-15T03:21:22.344Z,6.13
2023-05-15T03:23:52.260Z,6.50
2023-05-15T03:26:20.631Z,6.47
2023-05-15T03:28:49.061Z,5.20
2023-05-15T03:31:17.515Z,6.43
2023-05-15T03:33:49.861Z,6.77
2023-05-15T03:36:18.550Z,6.10
2023-05-15T03:38:46.928Z,5.80
2023-05-15T03:41:16.567Z,7.13
2023-05-15T03:43:46.554Z,5.53
2023-05-15T03:46:15.627Z,6.20
2023-05-15T03:48:44.180Z,5.80
2023-05-15T03:51:12.661Z,5.00
2023-05-15T03:53:41.054Z,6.30
2023-05-15T03:56:11.956Z,5.50
2023-05-15T03:58:41.687Z,5.57
2023-05-15T04:01:10.082Z,5.70
2023-05-15T04:03:38.531Z,5.70
2023-05-15T04:06:07.488Z,5.23
2023-05-15T04:08:35.971Z,5.50
2023-05-15T04:11:04.654Z,5.97
2023-05-15T04:13:33.308Z,5.20
2023-05-15T04:16:04.039Z,5.87
2023-05-15T04:18:32.435Z,5.37
2023-05-15T04:21:01.037Z,6.33
2023-05-15T04:23:29.454Z,6.77
2023-05-15T04:25:57.845Z,7.13
2023-05-15T04:28:26.425Z,7.50
2023-05-15T04:30:55.085Z,7.80
2023-05-15T04:33:24.880Z,7.53
2023-05-15T04:35:53.407Z,6.73
2023-05-15T04:38:21.835Z,7.87
2023-05-15T04:40:51.488Z,6.43
2023-05-15T04:43:19.833Z,6.73
2023-05-15T04:45:48.466Z,6.90
2023-05-15T04:48:19.090Z,7.53
2023-05-15T04:50:48.854Z,8.20
2023-05-15T04:53:17.217Z,7.87
2023-05-15T04:55:45.685Z,7.10
2023-05-15T04:58:14.155Z,7.00
2023-05-15T05:00:42.630Z,7.47
2023-05-15T05:03:11.661Z,6.70
2023-05-15T05:05:40.208Z,7.50
2023-05-15T05:08:09.926Z,7.40
2023-05-15T05:10:38.348Z,7.60
2023-05-15T05:13:06.684Z,7.30
2023-05-15T05:15:35.186Z,6.70
2023-05-15T05:18:03.621Z,7.43
2023-05-15T05:20:32.080Z,6.90
2023-05-15T05:23:00.459Z,7.20
2023-05-15T05:25:30.207Z,8.00
2023-05-15T05:27:58.534Z,6.83
2023-05-15T05:30:26.907Z,7.60
2023-05-15T05:32:55.323Z,6.60
2023-05-15T05:35:23.917Z,10.93
2023-05-15T05:37:52.552Z,7.90
2023-05-15T05:40:20.820Z,6.97
2023-05-15T05:42:51.733Z,7.20
2023-05-15T05:45:20.159Z,6.10
2023-05-15T05:47:48.693Z,7.97
2023-05-15T05:50:17.215Z,7.20
2023-05-15T05:52:45.545Z,7.10
2023-05-15T05:55:13.967Z,9.53
2023-05-15T05:57:42.410Z,7.80
2023-05-15T06:00:14.564Z,7.97
2023-05-15T06:02:43.318Z,7.80
2023-05-15T06:05:11.831Z,7.10
2023-05-15T06:07:40.215Z,7.33
2023-05-15T06:10:09.798Z,7.10
2023-05-15T06:12:38.655Z,8.00
2023-05-15T06:15:07.651Z,7.00
2023-05-15T06:17:37.444Z,7.33
2023-05-15T06:20:07.174Z,7.27
2023-05-15T06:22:35.604Z,7.10
2023-05-15T06:25:04.956Z,6.70
2023-05-15T06:27:33.598Z,6.77
2023-05-15T06:30:02.046Z,7.03
2023-05-15T06:32:32.013Z,6.63
2023-05-15T06:35:03.590Z,6.67
2023-05-15T06:37:32.113Z,6.40
2023-05-15T06:40:00.601Z,6.80
2023-05-15T06:42:28.948Z,7.27
2023-05-15T06:44:57.366Z,6.07
2023-05-15T06:47:25.823Z,6.40
2023-05-15T06:49:56.327Z,5.83
2023-05-15T06:52:26.176Z,5.57
2023-05-15T06:54:54.577Z,5.40
2023-05-15T06:57:23.103Z,5.47
2023-05-15T06:59:51.890Z,5.80
2023-05-15T07:02:20.335Z,6.00
2023-05-15T07:04:48.853Z,5.27
2023-05-15T07:07:17.280Z,6.07
2023-05-15T07:09:48.463Z,5.83
2023-05-15T07:12:16.831Z,5.90
2023-05-15T07:14:45.287Z,5.17
2023-05-15T07:17:13.793Z,5.70
2023-05-15T07:19:42.293Z,5.40
2023-05-15T07:22:10.682Z,4.90
2023-05-15T07:24:40.679Z,5.67
2023-05-15T07:27:11.372Z,5.80
2023-05-15T07:29:39.671Z,4.80
2023-05-15T07:32:08.268Z,5.10
2023-05-15T07:34:36.734Z,4.53
2023-05-15T07:37:05.124Z,4.70
2023-05-15T07:39:33.650Z,4.47
2023-05-15T07:42:02.053Z,4.70
2023-05-15T07:44:31.836Z,4.90
2023-05-15T07:47:00.833Z,4.10
2023-05-15T07:49:29.238Z,4.60
2023-05-15T07:51:57.518Z,5.53
2023-05-15T07:54:26.894Z,5.30
2023-05-15T07:56:55.408Z,5.23
2023-05-15T07:59:57.119Z,4.60
2023-05-15T08:02:27.292Z,4.30
2023-05-15T08:04:55.809Z,4.20
2023-05-15T08:07:24.454Z,4.33
2023-05-15T08:09:52.981Z,3.60
2023-05-15T08:12:22.282Z,3.43
2023-05-15T08:14:51.163Z,4.83
2023-05-15T08:17:20.856Z,3.50
2023-05-15T08:19:53.817Z,4.10
2023-05-15T08:22:22.156Z,3.57
2023-05-15T08:24:50.528Z,3.97
2023-05-15T08:27:18.948Z,3.53
2023-05-15T08:29:47.384Z,3.07
2023-05-15T08:32:15.759Z,4.13
2023-05-15T08:34:44.099Z,3.70
2023-05-15T08:37:13.846Z,3.60
2023-05-15T08:39:42.253Z,3.70
2023-05-15T08:42:12.805Z,4.80
2023-05-15T08:44:42.362Z,3.77
2023-05-15T08:47:10.866Z,4.33
2023-05-15T08:49:46.339Z,3.90
2023-05-15T08:52:17.027Z,3.70
2023-05-15T08:54:48.258Z,3.63
2023-05-15T08:57:17.236Z,4.37
2023-05-15T08:59:45.794Z,4.50
2023-05-15T09:02:14.318Z,4.40
2023-05-15T09:04:42.944Z,4.10
2023-05-15T09:07:11.748Z,4.13
2023-05-15T09:09:41.779Z,4.40
2023-05-15T09:12:12.453Z,4.03
2023-05-15T09:14:40.891Z,4.37
2023-05-15T09:17:11.566Z,5.10
2023-05-15T09:19:41.176Z,4.40
2023-05-15T09:22:17.775Z,4.37
2023-05-15T09:24:48.531Z,3.67
2023-05-15T09:27:16.999Z,4.00
2023-05-15T09:29:45.423Z,4.00
2023-05-15T09:32:14.886Z,4.07
2023-05-15T09:34:44.370Z,4.70
2023-05-15T09:37:13.232Z,4.30
2023-05-15T09:39:45.050Z,4.30
2023-05-15T09:42:15.677Z,3.67
2023-05-15T09:44:44.974Z,4.20
2023-05-15T09:47:14.635Z,4.87
2023-05-15T09:49:46.973Z,4.07
2023-05-15T09:52:17.795Z,3.80
2023-05-15T09:54:50.127Z,5.27
2023-05-15T09:57:24.245Z,4.50
2023-05-15T09:59:53.998Z,3.90
2023-05-15T10:02:28.083Z,4.20
2023-05-15T10:04:57.597Z,5.87
2023-05-15T10:07:30.140Z,4.37
2023-05-15T10:09:58.521Z,4.27
2023-05-15T10:12:28.681Z,3.73
2023-05-15T10:14:58.543Z,4.53
2023-05-15T10:17:27.558Z,4.00
2023-05-15T10:19:58.345Z,6.00
2023-05-15T10:22:29.055Z,4.30
2023-05-15T10:25:01.207Z,6.37
2023-05-15T10:27:32.110Z,3.87
2023-05-15T10:30:01.252Z,3.83
2023-05-15T10:32:29.780Z,3.70
2023-05-15T10:34:58.998Z,3.57
2023-05-15T10:37:27.779Z,3.90
2023-05-15T10:39:57.023Z,3.97
2023-05-15T10:42:26.587Z,4.03
2023-05-15T10:45:00.048Z,5.90
2023-05-15T10:47:29.057Z,5.00
2023-05-15T10:49:57.593Z,4.90
2023-05-15T10:52:26.092Z,3.70
2023-05-15T10:54:54.738Z,4.10
2023-05-15T10:57:23.256Z,4.03
2023-05-15T10:59:52.002Z,8.50
2023-05-15T11:02:26.193Z,3.50
2023-05-15T11:05:01.296Z,3.90
2023-05-15T11:07:29.887Z,3.67
2023-05-15T11:09:58.534Z,4.53
2023-05-15T11:12:26.900Z,4.87
2023-05-15T11:15:13.043Z,4.27
2023-05-15T11:18:02.835Z,4.10
2023-05-15T11:20:35.818Z,4.70
2023-05-15T11:23:05.402Z,4.70
2023-05-15T11:25:33.794Z,4.27
2023-05-15T11:28:02.114Z,5.27
2023-05-15T11:30:37.252Z,3.53
2023-05-15T11:33:11.646Z,4.00
2023-05-15T11:35:42.180Z,4.43
2023-05-15T11:38:14.564Z,3.50
2023-05-15T11:40:47.338Z,3.77
2023-05-15T11:43:19.836Z,3.57
2023-05-15T11:45:49.694Z,3.77
2023-05-15T11:48:19.738Z,4.30
2023-05-15T11:50:48.264Z,3.73
2023-05-15T11:53:16.952Z,4.07
2023-05-15T11:55:46.380Z,4.40
2023-05-15T11:58:15.785Z,6.80
2023-05-15T12:00:44.596Z,5.70
2023-05-15T12:03:22.500Z,4.63
2023-05-15T12:05:59.114Z,4.97
2023-05-15T12:08:29.027Z,5.10
2023-05-15T12:11:00.513Z,5.60
2023-05-15T12:13:29.150Z,7.60
2023-05-15T12:15:57.911Z,4.70
2023-05-15T12:18:27.793Z,4.40
2023-05-15T12:20:56.440Z,4.43
2023-05-15T12:23:25.443Z,5.07
2023-05-15T12:25:55.226Z,6.07
2023-05-15T12:28:24.040Z,4.23
2023-05-15T12:30:52.782Z,5.80
2023-05-15T12:33:21.408Z,5.30
2023-05-15T12:35:59.934Z,5.03
2023-05-15T12:38:30.583Z,5.13
2023-05-15T12:40:59.177Z,4.80
2023-05-15T12:43:27.799Z,4.10
2023-05-15T12:45:56.573Z,4.03
2023-05-15T12:48:25.316Z,3.30
2023-05-15T12:50:55.065Z,4.30
2023-05-15T12:53:23.434Z,3.80
2023-05-15T12:55:52.715Z,4.17
2023-05-15T12:58:21.992Z,3.90
2023-05-15T13:00:51.398Z,4.73
2023-05-15T13:03:21.658Z,4.27
2023-05-15T13:05:50.255Z,5.27
2023-05-15T13:08:20.394Z,4.00
2023-05-15T13:10:49.405Z,3.00
2023-05-15T13:13:18.396Z,3.03
2023-05-15T13:15:47.047Z,3.50
2023-05-15T13:18:16.187Z,3.53
2023-05-15T13:20:45.810Z,4.13
2023-05-15T13:23:15.114Z,10.80
2023-05-15T13:25:45.093Z,3.80
2023-05-15T13:28:13.899Z,3.80
2023-05-15T13:30:42.664Z,5.40
2023-05-15T13:33:11.889Z,4.90
2023-05-15T13:35:41.323Z,4.80
2023-05-15T13:38:11.722Z,5.70
2023-05-15T13:40:40.319Z,4.17
2023-05-15T13:43:10.252Z,3.40
2023-05-15T13:45:38.640Z,13.60
2023-05-15T13:48:07.228Z,7.00
2023-05-15T13:50:35.830Z,6.37
2023-05-15T13:53:04.404Z,3.57
2023-05-15T13:55:32.809Z,3.93
2023-05-15T13:58:01.607Z,4.47
2023-05-15T14:00:31.342Z,4.00
2023-05-15T14:02:59.873Z,4.60
2023-05-15T14:05:28.275Z,3.37
2023-05-15T14:07:57.140Z,2.83
2023-05-15T14:10:25.984Z,4.00
2023-05-15T14:12:54.588Z,2.73
2023-05-15T14:15:23.077Z,4.53
2023-05-15T14:17:52.919Z,2.67
2023-05-15T14:20:21.373Z,3.47
2023-05-15T14:22:49.908Z,2.70
2023-05-15T14:25:18.168Z,2.63
2023-05-15T14:27:47.509Z,2.80
2023-05-15T14:30:15.956Z,2.90
2023-05-15T14:32:44.521Z,3.30
2023-05-15T14:35:14.358Z,3.10
2023-05-15T14:37:43.153Z,4.40
2023-05-15T14:40:12.293Z,7.37
2023-05-15T14:42:40.611Z,4.70
2023-05-15T14:45:09.766Z,6.77
2023-05-15T14:47:38.321Z,4.50
2023-05-15T14:50:07.093Z,3.20
2023-05-15T14:52:36.894Z,4.67
2023-05-15T14:55:09.707Z,4.03
2023-05-15T14:57:38.575Z,4.23
2023-05-15T15:00:09.741Z,2.60
2023-05-15T15:02:38.444Z,2.50
2023-05-15T15:05:07.549Z,2.40
2023-05-15T15:07:57.341Z,2.60
2023-05-15T15:10:25.989Z,7.90
2023-05-15T15:12:54.641Z,5.90
2023-05-15T15:15:23.431Z,5.00
2023-05-15T15:17:52.223Z,5.20
2023-05-15T15:20:21.529Z,4.20
2023-05-15T15:22:51.201Z,4.57
2023-05-15T15:25:20.561Z,4.50
2023-05-15T15:27:49.056Z,5.17
2023-05-15T15:30:17.781Z,3.30
2023-05-15T15:32:46.770Z,4.67
2023-05-15T15:35:15.412Z,5.93
2023-05-15T15:37:43.877Z,3.40
2023-05-15T15:40:13.719Z,3.53
2023-05-15T15:42:42.153Z,5.10
2023-05-15T15:45:10.777Z,3.00
2023-05-15T15:47:39.377Z,3.80
2023-05-15T15:50:08.166Z,3.30
2023-05-15T15:52:36.797Z,2.70
2023-05-15T15:55:05.476Z,2.60
2023-05-15T15:57:35.334Z,3.50
2023-05-15T16:00:03.719Z,2.87
2023-05-15T16:02:32.305Z,4.23
2023-05-15T16:05:00.640Z,1.90
2023-05-15T16:07:29.188Z,1.70
2023-05-15T16:10:10.931Z,2.57
2023-05-15T16:12:42.594Z,2.10
2023-05-15T16:17:43.180Z,2.20
2023-05-15T16:20:11.914Z,5.77
2023-05-15T16:22:41.788Z,1.80
2023-05-15T16:25:10.926Z,2.67
2023-05-15T16:27:39.279Z,2.20
2023-05-15T16:30:11.628Z,3.13
2023-05-15T16:32:40.279Z,3.47
2023-05-15T16:35:09.089Z,2.17
2023-05-15T16:37:37.567Z,2.10
2023-05-15T16:40:06.537Z,2.40
2023-05-15T16:42:38.100Z,2.00
2023-05-15T16:45:07.231Z,3.03
2023-05-15T16:47:38.359Z,2.50
2023-05-15T16:50:07.369Z,2.27
2023-05-15T16:52:36.232Z,3.53
2023-05-15T16:55:04.752Z,2.60
2023-05-15T16:57:33.166Z,2.40
2023-05-15T17:00:01.506Z,2.70
2023-05-15T17:02:29.926Z,3.10
2023-05-15T17:05:00.078Z,2.50
2023-05-15T17:07:28.408Z,2.50
2023-05-15T17:09:56.843Z,2.90
2023-05-15T17:12:25.312Z,3.07
2023-05-15T17:14:53.737Z,3.40
2023-05-15T17:17:23.172Z,2.90
2023-05-15T17:19:51.620Z,2.90
2023-05-15T17:22:21.531Z,2.70
2023-05-15T17:24:51.805Z,3.07
2023-05-15T17:27:20.835Z,2.90
2023-05-15T17:29:49.350Z,4.10
2023-05-15T17:32:18.288Z,3.30
2023-05-15T17:34:46.845Z,3.03
2023-05-15T17:37:17.605Z,3.27
2023-05-15T17:39:47.316Z,3.50
2023-05-15T17:42:15.684Z,3.50
2023-05-15T17:44:44.097Z,3.40
2023-05-15T17:47:12.370Z,3.90
2023-05-15T17:49:40.822Z,3.80
2023-05-15T17:52:09.866Z,3.70
2023-05-15T17:54:38.400Z,3.80
2023-05-15T17:57:08.307Z,3.60
2023-05-15T17:59:36.633Z,7.10
2023-05-15T18:02:05.110Z,4.47
2023-05-15T18:04:33.471Z,3.73
2023-05-15T18:07:01.872Z,3.67
2023-05-15T18:09:30.389Z,3.33
2023-05-15T18:11:58.849Z,4.10
2023-05-15T18:14:28.668Z,4.63
2023-05-15T18:16:57.542Z,4.97
2023-05-15T18:19:25.960Z,3.33
2023-05-15T18:21:54.343Z,4.20
2023-05-15T18:24:22.643Z,3.40
2023-05-15T18:26:51.217Z,5.60
2023-05-15T18:29:19.641Z,4.20
2023-05-15T18:31:49.458Z,4.17
2023-05-15T18:34:17.947Z,4.20
2023-05-15T18:36:46.616Z,4.10
2023-05-15T18:39:15.592Z,4.57
2023-05-15T18:41:44.082Z,4.43
2023-05-15T18:44:12.486Z,4.10
2023-05-15T18:46:40.887Z,4.03
2023-05-15T18:49:10.821Z,4.20
2023-05-15T18:51:39.291Z,4.10
2023-05-15T18:54:07.774Z,4.70
2023-05-15T18:56:36.358Z,6.20
2023-05-15T18:59:04.738Z,4.57
2023-05-15T19:01:33.155Z,5.00
2023-05-15T19:04:01.651Z,5.40
2023-05-15T19:06:31.640Z,4.33
2023-05-15T19:08:59.992Z,4.10
2023-05-15T19:11:28.465Z,4.17
2023-05-15T19:13:56.849Z,4.43
2023-05-15T19:16:28.549Z,4.03
2023-05-15T19:18:57.134Z,4.03
2023-05-15T19:21:25.884Z,4.13
2023-05-15T19:23:55.589Z,4.43
2023-05-15T19:26:24.146Z,4.93
2023-05-15T19:28:53.016Z,4.20
2023-05-15T19:33:56.373Z,3.97
2023-05-15T19:36:24.887Z,4.23
2023-05-15T19:38:53.419Z,4.40
2023-05-15T19:41:23.538Z,4.63
2023-05-15T19:43:52.091Z,4.50
2023-05-15T19:46:20.747Z,4.40
2023-05-15T19:48:49.308Z,4.23
2023-05-15T19:51:17.642Z,6.00
2023-05-15T19:53:46.163Z,4.87
2023-05-15T19:56:14.955Z,4.53
2023-05-15T19:58:44.937Z,3.80
2023-05-15T20:01:13.368Z,3.90
2023-05-15T20:03:42.229Z,4.03
2023-05-15T20:06:11.687Z,4.10
2023-05-15T20:08:40.289Z,4.07
2023-05-15T20:11:08.718Z,4.00
2023-05-15T20:13:37.585Z,3.63
2023-05-15T20:16:10.375Z,3.73
2023-05-15T20:18:39.785Z,4.97
2023-05-15T20:21:08.367Z,3.97
2023-05-15T20:23:36.764Z,3.73
2023-05-15T20:26:05.364Z,4.83
2023-05-15T20:28:33.833Z,4.73
2023-05-15T20:31:03.084Z,4.20
2023-05-15T20:33:32.903Z,5.03
2023-05-15T20:36:02.730Z,3.83
2023-05-15T20:38:31.117Z,4.50
2023-05-15T20:40:59.589Z,3.90
2023-05-15T20:43:28.019Z,3.90
2023-05-15T20:45:56.390Z,4.07
2023-05-15T20:48:24.881Z,4.87
2023-05-15T20:50:54.693Z,4.57
2023-05-15T20:53:23.277Z,3.87
2023-05-15T20:55:51.722Z,5.00
2023-05-15T20:58:20.135Z,3.80
2023-05-15T21:00:48.687Z,3.70
2023-05-15T21:03:17.172Z,4.10
2023-05-15T21:05:45.888Z,4.20
2023-05-15T21:08:15.657Z,4.60
2023-05-15T21:10:44.095Z,4.23
2023-05-15T21:13:14.149Z,3.93
2023-05-15T21:15:42.480Z,3.47
2023-05-15T21:18:10.818Z,3.53
2023-05-15T21:20:39.229Z,3.23
2023-05-15T21:23:07.677Z,4.27
2023-05-15T21:25:37.828Z,4.03
2023-05-15T21:28:06.210Z,3.20
2023-05-15T21:30:34.587Z,3.80
2023-05-15T21:33:03.023Z,3.60
2023-05-15T21:35:31.862Z,3.70
2023-05-15T21:38:00.475Z,4.13
2023-05-15T21:40:29.079Z,4.07
2023-05-15T21:42:59.149Z,3.90
2023-05-15T21:45:27.620Z,3.27
2023-05-15T21:47:56.330Z,4.80
2023-05-15T21:50:25.041Z,4.00
2023-05-15T21:52:53.632Z,4.77
2023-05-15T21:55:22.086Z,4.50
2023-05-15T21:57:50.394Z,3.40
2023-05-15T22:00:20.605Z,3.87
2023-05-15T22:02:49.094Z,3.63
2023-05-15T22:05:17.672Z,4.00
2023-05-15T22:07:46.154Z,4.17
2023-05-15T22:10:16.638Z,4.37
2023-05-15T22:12:45.112Z,4.10
2023-05-15T22:15:14.667Z,3.80
2023-05-15T22:17:44.643Z,3.87
2023-05-15T22:20:13.941Z,3.87
2023-05-15T22:22:44.084Z,3.80
2023-05-15T22:25:12.482Z,8.30
2023-05-15T22:27:40.813Z,4.33
2023-05-15T22:30:09.859Z,3.70
2023-05-15T22:32:38.256Z,3.33
2023-05-15T22:35:09.153Z,3.50
2023-05-15T22:37:37.529Z,4.57
2023-05-15T22:40:07.477Z,4.30
2023-05-15T22:42:35.945Z,4.00
2023-05-15T22:45:05.094Z,5.93
2023-05-15T22:47:33.649Z,4.27
2023-05-15T22:50:02.148Z,4.43
2023-05-15T22:52:31.979Z,3.40
2023-05-15T22:55:00.368Z,3.33
2023-05-15T22:57:29.032Z,3.33
2023-05-15T22:59:57.839Z,3.17
2023-05-15T23:02:26.366Z,4.60
2023-05-15T23:04:54.839Z,4.50
2023-05-15T23:07:23.318Z,3.27
2023-05-15T23:09:54.535Z,3.37
2023-05-15T23:12:22.969Z,3.63
2023-05-15T23:14:51.348Z,3.47
2023-05-15T23:17:19.756Z,4.13
2023-05-15T23:19:48.232Z,4.00
2023-05-15T23:22:16.611Z,3.30
2023-05-15T23:24:45.127Z,3.00
2023-05-15T23:27:14.751Z,4.10
2023-05-15T23:29:43.259Z,3.10
2023-05-15T23:32:11.721Z,3.47
2023-05-15T23:34:40.089Z,3.50
2023-05-15T23:37:08.506Z,3.43
2023-05-15T23:39:37.293Z,3.93
2023-05-15T23:42:05.946Z,4.60
2023-05-15T23:44:35.787Z,4.03
2023-05-15T23:47:04.553Z,3.67
2023-05-15T23:49:33.622Z,3.57
2023-05-15T23:52:02.229Z,4.10
2023-05-15T23:54:31.068Z,3.80
2023-05-15T23:56:59.542Z,3.30
2023-05-15T23:59:28.025Z,4.10
